Time;durP1;ratioP1;P1;durP2;ratioP2;P2;SDS_P1;SDS_P2;PMS_P1;PMS_P2;Temp;Humidity;BMP_temperature;BMP_pressure;BME280_temperature;BME280_humidity;BME280_pressure;Samples;Min_cycle;Max_cycle;Signal;HPM_P1;HPM_P2
2023/06/05 00:02:24;;;;;;;5.90;3.90;;;;;;;9.90;100.00;101577.33;105973;1253;73697;-87
2023/06/05 00:04:52;;;;;;;5.40;4.00;;;;;;;9.86;100.00;101577.15;106034;1251;64131;-89
2023/06/05 00:07:19;;;;;;;11.50;4.00;;;;;;;9.83;100.00;101581.98;106149;1251;72785;-87
2023/06/05 00:09:46;;;;;;;6.20;3.30;;;;;;;9.82;100.00;101585.54;106071;1257;61964;-87
2023/06/05 00:12:13;;;;;;;5.10;2.30;;;;;;;9.81;100.00;101580.36;106078;1251;60425;-88
2023/06/05 00:14:43;;;;;;;3.30;3.00;;;;;;;9.80;100.00;101580.23;106096;1254;73549;-87
2023/06/05 00:17:10;;;;;;;4.90;2.80;;;;;;;9.79;100.00;101573.10;106075;1254;63852;-89
2023/06/05 00:19:37;;;;;;;5.90;3.70;;;;;;;9.78;100.00;101578.89;106022;1251;72772;-92
2023/06/05 00:22:04;;;;;;;8.80;3.40;;;;;;;9.77;100.00;101577.17;106071;1256;60476;-89
2023/06/05 00:24:31;;;;;;;5.60;3.30;;;;;;;9.77;100.00;101579.31;105997;1251;60530;-87
2023/06/05 00:26:58;;;;;;;2.30;2.10;;;;;;;9.75;100.00;101580.23;106123;1254;73747;-87
2023/06/05 00:29:26;;;;;;;3.50;2.00;;;;;;;9.75;100.00;101582.15;106008;1251;63858;-87
2023/06/05 00:31:53;;;;;;;3.40;2.00;;;;;;;9.75;100.00;101582.84;106059;1254;71929;-87
2023/06/05 00:34:20;;;;;;;3.90;2.60;;;;;;;9.74;100.00;101579.23;105993;1256;61059;-87
2023/06/05 00:36:50;;;;;;;4.30;2.40;;;;;;;9.74;100.00;101579.39;106024;1251;60420;-87
2023/06/05 00:39:20;;;;;;;4.70;2.90;;;;;;;9.74;100.00;101580.09;106043;1257;71679;-84
2023/06/05 00:41:46;;;;;;;10.10;3.50;;;;;;;9.72;100.00;101578.40;105878;1256;62690;-88
2023/06/05 00:44:13;;;;;;;7.00;3.50;;;;;;;9.71;100.00;101576.36;106106;1254;71719;-88
2023/06/05 00:46:40;;;;;;;7.90;4.60;;;;;;;9.71;100.00;101580.40;106061;1251;61030;-89
2023/06/05 00:49:08;;;;;;;10.00;4.70;;;;;;;9.69;100.00;101580.15;106019;1251;60447;-88
2023/06/05 00:51:35;;;;;;;6.70;5.10;;;;;;;9.67;100.00;101575.34;106008;1250;74382;-89
2023/06/05 00:54:02;;;;;;;10.10;4.50;;;;;;;9.65;100.00;101576.44;105833;1251;62531;-91
2023/06/05 00:56:29;;;;;;;10.20;4.30;;;;;;;9.66;100.00;101574.85;106101;1251;72654;-88
2023/06/05 00:58:58;;;;;;;7.30;4.50;;;;;;;9.65;100.00;101573.64;105987;1253;61961;-87
2023/06/05 01:01:28;;;;;;;8.60;5.70;;;;;;;9.65;100.00;101572.06;106103;1251;60533;-86
2023/06/05 01:03:58;;;;;;;8.30;5.40;;;;;;;9.66;100.00;101571.89;105930;1250;73909;-85
2023/06/05 01:06:30;;;;;;;7.90;4.20;;;;;;;9.68;100.00;101573.35;106015;1257;63628;-87
2023/06/05 01:08:59;;;;;;;7.20;4.10;;;;;;;9.71;100.00;101572.54;105959;1257;71271;-88
2023/06/05 01:11:37;;;;;;;10.00;4.10;;;;;;;9.73;100.00;101571.77;105971;1251;61873;-87
2023/06/05 01:17:00;;;;;;;7.60;3.90;;;;;;;9.74;100.00;101567.68;103075;1294;600846;-87
2023/06/05 01:19:31;;;;;;;6.30;4.00;;;;;;;9.70;100.00;101564.73;104923;1266;59290;-87
2023/06/05 01:21:59;;;;;;;6.70;4.10;;;;;;;9.66;100.00;101563.49;105143;1271;59353;-89
2023/06/05 01:24:27;;;;;;;12.70;4.40;;;;;;;9.61;100.00;101564.04;105118;1266;73057;-87
2023/06/05 01:27:00;;;;;;;5.70;3.80;;;;;;;9.56;100.00;101567.76;104960;1270;63733;-85
2023/06/05 01:29:34;;;;;;;4.90;4.00;;;;;;;9.49;100.00;101565.40;104544;1267;623327;-84
2023/06/05 01:32:06;;;;;;;7.10;5.50;;;;;;;9.44;100.00;101566.98;105252;1264;60458;-86
2023/06/05 01:34:34;;;;;;;6.80;4.10;;;;;;;9.42;100.00;101565.67;108238;1263;58840;-85
2023/06/05 01:37:01;;;;;;;8.70;5.50;;;;;;;9.40;100.00;101569.79;108674;1262;71140;-86
2023/06/05 01:39:29;;;;;;;18.40;7.20;;;;;;;9.36;100.00;101572.02;108704;1262;62303;-87
2023/06/05 01:41:56;;;;;;;10.50;6.80;;;;;;;9.33;100.00;101574.77;108794;1262;70195;-89
2023/06/05 01:44:26;;;;;;;8.10;6.50;;;;;;;9.32;100.00;101571.48;108936;1257;60932;-86
2023/06/05 01:46:53;;;;;;;11.60;7.10;;;;;;;9.32;100.00;101575.14;109130;1257;59248;-86
2023/06/05 01:49:21;;;;;;;10.70;6.90;;;;;;;9.30;100.00;101579.05;109020;1257;72591;-86
2023/06/05 01:51:49;;;;;;;9.60;6.30;;;;;;;9.31;100.00;101577.64;109115;1257;63271;-87
2023/06/05 01:54:18;;;;;;;13.50;5.90;;;;;;;9.31;100.00;101576.92;109051;1257;71466;-86
2023/06/05 01:56:47;;;;;;;14.20;7.10;;;;;;;9.29;100.00;101576.30;109014;1257;61239;-86
2023/06/05 01:59:15;;;;;;;8.60;6.10;;;;;;;9.27;100.00;101577.09;109113;1258;60930;-88
2023/06/05 02:01:44;;;;;;;13.70;6.70;;;;;;;9.25;100.00;101580.48;109028;1257;72020;-86
2023/06/05 02:04:16;;;;;;;10.50;6.90;;;;;;;9.23;100.00;101584.25;108124;1257;62325;-86
2023/06/05 02:06:45;;;;;;;12.10;5.60;;;;;;;9.17;100.00;101586.55;108325;1257;71316;-86
2023/06/05 02:09:12;;;;;;;11.10;5.30;;;;;;;9.14;100.00;101582.99;107566;1260;60463;-86
2023/06/05 02:11:45;;;;;;;8.00;5.00;;;;;;;9.13;100.00;101586.86;107121;1262;59624;-86
2023/06/05 02:14:13;;;;;;;9.00;4.70;;;;;;;9.13;100.00;101587.40;107235;1258;72907;-86
2023/06/05 02:16:41;;;;;;;9.00;5.60;;;;;;;9.15;100.00;101587.86;107833;1257;62563;-88
2023/06/05 02:19:10;;;;;;;9.70;5.70;;;;;;;9.18;100.00;101589.50;105858;1258;71885;-88
2023/06/05 02:21:38;;;;;;;7.50;5.80;;;;;;;9.24;100.00;101588.38;105531;1260;61874;-88
2023/06/05 02:24:06;;;;;;;7.80;6.30;;;;;;;9.29;100.00;101586.95;105566;1258;60687;-86
2023/06/05 02:26:34;;;;;;;9.60;6.00;;;;;;;9.36;100.00;101583.04;105634;1260;71957;-88
2023/06/05 02:29:02;;;;;;;9.10;6.10;;;;;;;9.42;100.00;101585.05;105453;1257;61549;-87
2023/06/05 02:31:30;;;;;;;9.60;6.10;;;;;;;9.48;100.00;101582.34;105395;1265;72777;-89
2023/06/05 02:33:58;;;;;;;9.30;6.90;;;;;;;9.55;100.00;101582.26;105459;1260;59824;-88
2023/06/05 02:36:26;;;;;;;13.70;7.80;;;;;;;9.61;100.00;101586.02;105354;1263;59605;-87
2023/06/05 02:38:54;;;;;;;13.00;7.80;;;;;;;9.64;100.00;101585.77;105348;1257;74493;-88
2023/06/05 02:41:22;;;;;;;12.80;6.70;;;;;;;9.63;100.00;101588.23;105320;1264;62711;-88
2023/06/05 02:43:50;;;;;;;12.10;7.10;;;;;;;9.60;100.00;101593.75;105341;1260;71160;-88
2023/06/05 02:46:17;;;;;;;9.60;7.30;;;;;;;9.57;100.00;101594.25;106594;1252;60641;-86
2023/06/05 02:48:45;;;;;;;13.50;7.80;;;;;;;9.53;100.00;101601.02;109681;1252;58772;-86
2023/06/05 02:51:13;;;;;;;10.80;6.90;;;;;;;9.51;100.00;101599.70;108143;1255;72007;-84
2023/06/05 02:53:42;;;;;;;12.30;7.10;;;;;;;9.50;100.00;101593.10;107099;1255;62400;-86
2023/06/05 02:56:10;;;;;;;8.60;7.20;;;;;;;9.50;100.00;101587.69;106609;1256;71481;-86
2023/06/05 02:58:39;;;;;;;11.00;7.40;;;;;;;9.52;100.00;101591.78;105927;1254;61141;-88
2023/06/05 03:01:08;;;;;;;10.90;7.50;;;;;;;9.54;100.00;101592.75;105806;1259;59777;-89
2023/06/05 03:03:40;;;;;;;11.90;8.60;;;;;;;9.57;100.00;101597.89;105911;1251;74263;-87
2023/06/05 03:06:08;;;;;;;12.50;8.90;;;;;;;9.59;100.00;101594.69;105751;1258;62417;-88
2023/06/05 03:08:42;;;;;;;11.90;8.10;;;;;;;9.61;100.00;101594.25;105805;1257;72536;-90
2023/06/05 03:11:13;;;;;;;12.90;8.60;;;;;;;9.64;100.00;101596.22;105787;1257;62114;-88
2023/06/05 03:13:41;;;;;;;12.80;8.80;;;;;;;9.67;100.00;101599.23;105781;1257;59892;-86
2023/06/05 03:16:10;;;;;;;12.60;8.00;;;;;;;9.70;100.00;101596.66;105788;1251;73054;-86
2023/06/05 03:18:40;;;;;;;13.50;8.30;;;;;;;9.73;100.00;101600.40;106137;1251;63002;-87
2023/06/05 03:21:10;;;;;;;8.60;6.50;;;;;;;9.77;100.00;101597.95;105918;1253;71444;-90
2023/06/05 03:23:38;;;;;;;12.00;7.40;;;;;;;9.84;100.00;101596.45;105826;1251;61821;-88
2023/06/05 03:26:06;;;;;;;10.60;6.00;;;;;;;9.92;100.00;101599.26;105796;1257;59613;-86
2023/06/05 03:28:34;;;;;;;10.70;5.90;;;;;;;10.02;100.00;101596.23;105683;1258;73073;-87
2023/06/05 03:31:05;;;;;;;9.30;6.50;;;;;;;10.14;100.00;101592.23;106055;1251;62916;-87
2023/06/05 03:33:35;;;;;;;9.30;5.20;;;;;;;10.27;100.00;101595.17;105803;1253;71430;-87
2023/06/05 03:36:05;;;;;;;9.10;5.60;;;;;;;10.41;100.00;101597.55;105800;1251;61865;-87
2023/06/05 03:38:33;;;;;;;11.30;6.00;;;;;;;10.56;100.00;101594.83;105914;1251;59532;-88
2023/06/05 03:41:00;;;;;;;9.00;4.80;;;;;;;10.71;100.00;101597.46;105736;1251;71822;-86
2023/06/05 03:43:28;;;;;;;13.20;5.00;;;;;;;10.86;100.00;101595.39;105722;1251;64280;-86
2023/06/05 03:45:56;;;;;;;7.20;4.50;;;;;;;11.03;100.00;101599.88;105984;1253;72756;-88
2023/06/05 03:48:25;;;;;;;8.40;4.80;;;;;;;11.18;100.00;101596.19;105827;1251;60266;-87
2023/06/05 03:50:55;;;;;;;7.30;4.50;;;;;;;11.34;100.00;101599.28;106162;1256;59691;-88
2023/06/05 03:53:23;;;;;;;7.80;3.60;;;;;;;11.49;100.00;101600.33;109448;1251;73119;-88
2023/06/05 03:55:52;;;;;;;5.50;3.80;;;;;;;11.64;100.00;101597.88;109495;1251;62867;-87
2023/06/05 03:58:26;;;;;;;9.10;3.50;;;;;;;11.79;100.00;101603.98;109541;1251;71379;-87
2023/06/05 04:00:54;;;;;;;4.10;2.80;;;;;;;11.92;100.00;101605.45;109452;1255;58885;-88
2023/06/05 04:03:22;;;;;;;5.40;2.90;;;;;;;12.06;100.00;101604.78;109771;1251;58717;-87
2023/06/05 04:08:59;;;;;;;4.40;2.20;;;;;;;12.45;100.00;101603.30;106139;1289;599455;-88
2023/06/05 04:11:31;;;;;;;4.80;2.30;;;;;;;12.73;100.00;101602.70;108502;1264;59251;-87
2023/06/05 04:13:59;;;;;;;3.70;1.70;;;;;;;13.10;100.00;101607.36;108806;1264;58794;-86
2023/06/05 04:16:28;;;;;;;3.60;1.40;;;;;;;13.48;100.00;101607.74;108814;1264;70952;-87
2023/06/05 04:18:56;;;;;;;3.60;1.80;;;;;;;13.96;100.00;101608.01;109375;1257;62510;-85
2023/06/05 04:21:24;;;;;;;7.60;1.80;;;;;;;14.58;100.00;101611.21;109266;1256;71190;-86
2023/06/05 04:23:51;;;;;;;5.30;1.90;;;;;;;15.27;100.00;101606.54;109189;1254;59442;-85
2023/06/05 04:26:20;;;;;;;2.50;1.20;;;;;;;15.96;98.68;101604.18;109561;1252;58832;-88
2023/06/05 04:28:51;;;;;;;3.50;1.60;;;;;;;16.61;94.80;101603.98;109242;1253;72473;-88
2023/06/05 04:31:18;;;;;;;8.20;1.20;;;;;;;17.25;90.95;101608.11;109298;1253;62425;-86
2023/06/05 04:33:46;;;;;;;3.50;1.00;;;;;;;17.86;87.06;101602.83;109365;1253;71224;-87
2023/06/05 04:36:14;;;;;;;11.70;2.70;;;;;;;18.42;82.84;101608.23;109704;1249;58741;-85
2023/06/05 04:38:42;;;;;;;4.70;2.50;;;;;;;18.94;77.51;101607.57;109801;1250;58973;-85
2023/06/05 04:41:10;;;;;;;5.90;2.10;;;;;;;19.41;71.58;101605.99;109728;1250;72032;-82
2023/06/05 04:43:38;;;;;;;4.30;1.70;;;;;;;19.84;67.61;101605.59;109614;1251;63356;-85
2023/06/05 04:46:06;;;;;;;3.60;1.90;;;;;;;20.24;62.96;101602.65;109707;1249;71867;-86
2023/06/05 04:48:34;;;;;;;1.80;1.50;;;;;;;20.61;58.85;101597.46;108901;1250;60126;-86
2023/06/05 04:51:02;;;;;;;3.90;1.30;;;;;;;21.01;56.83;101600.96;106533;1257;59756;-88
2023/06/05 04:53:31;;;;;;;8.10;2.80;;;;;;;21.40;52.77;101602.23;106614;1257;71819;-88
2023/06/05 04:56:00;;;;;;;6.30;1.50;;;;;;;21.74;48.54;101599.95;106528;1251;63731;-89
2023/06/05 04:58:28;;;;;;;3.30;1.60;;;;;;;22.01;46.15;101598.33;106181;1251;71230;-89
2023/06/05 05:01:04;;;;;;;6.30;2.20;;;;;;;22.27;45.67;101606.21;106685;1250;60200;-85
2023/06/05 05:03:36;;;;;;;6.80;1.50;;;;;;;22.58;45.32;101602.23;108497;1251;60090;-85
2023/06/05 05:06:04;;;;;;;6.00;1.70;;;;;;;22.93;43.93;101605.65;107069;1250;71867;-87
2023/06/05 05:08:32;;;;;;;2.70;1.40;;;;;;;23.22;42.11;101608.21;106354;1254;63703;-88
2023/06/05 05:11:00;;;;;;;2.50;1.50;;;;;;;23.40;40.47;101616.83;106119;1257;71878;-88
2023/06/05 05:13:28;;;;;;;2.60;1.60;;;;;;;23.47;40.96;101614.71;106309;1256;59672;-86
2023/06/05 05:15:56;;;;;;;3.10;1.40;;;;;;;23.55;40.59;101611.36;105956;1258;60012;-87
2023/06/05 05:18:25;;;;;;;7.20;1.80;;;;;;;23.75;40.25;101610.09;105887;1251;72931;-88
2023/06/05 05:20:53;;;;;;;7.80;1.90;;;;;;;24.04;39.48;101604.73;106044;1253;64043;-88
2023/06/05 05:23:21;;;;;;;3.00;1.90;;;;;;;24.31;38.79;101604.98;106273;1251;71683;-84
2023/06/05 05:25:50;;;;;;;3.70;1.40;;;;;;;24.60;37.87;101607.52;106109;1251;59615;-86
2023/06/05 05:28:18;;;;;;;3.70;1.70;;;;;;;24.92;36.94;101605.48;106026;1256;61085;-88
2023/06/05 05:30:46;;;;;;;3.50;2.20;;;;;;;25.18;36.26;101607.56;106229;1251;73669;-84
2023/06/05 05:33:17;;;;;;;5.80;1.60;;;;;;;25.39;34.78;101611.75;105952;1251;63646;-87
2023/06/05 05:35:45;;;;;;;3.20;1.90;;;;;;;25.57;34.51;101611.75;105968;1254;71415;-85
2023/06/05 05:38:13;;;;;;;4.20;1.80;;;;;;;25.66;33.70;101612.05;106089;1250;60707;-88
2023/06/05 05:40:41;;;;;;;5.40;2.20;;;;;;;25.88;33.50;101614.39;106655;1255;59993;-89
2023/06/05 05:43:10;;;;;;;7.20;2.30;;;;;;;26.11;33.59;101610.05;106076;1255;73979;-86
2023/06/05 05:45:39;;;;;;;3.10;2.10;;;;;;;26.36;32.89;101610.41;106018;1251;62434;-87
2023/06/05 05:48:08;;;;;;;6.10;4.10;;;;;;;26.53;32.25;101608.77;106106;1252;72672;-87
2023/06/05 05:50:36;;;;;;;3.80;2.60;;;;;;;26.54;31.78;101605.04;109242;1249;61755;-86
2023/06/05 05:53:04;;;;;;;5.10;2.30;;;;;;;26.57;31.65;101608.88;109797;1250;58117;-87
2023/06/05 05:55:32;;;;;;;4.40;2.20;;;;;;;26.67;31.14;101607.42;106717;1251;71514;-87
2023/06/05 05:57:59;;;;;;;5.90;1.60;;;;;;;26.90;31.01;101604.65;107746;1251;62499;-87
2023/06/05 06:00:28;;;;;;;6.10;2.10;;;;;;;27.17;30.91;101599.86;106129;1251;71677;-88
2023/06/05 06:02:56;;;;;;;3.30;1.80;;;;;;;27.35;30.63;101601.29;106283;1256;59750;-89
2023/06/05 06:05:24;;;;;;;7.40;6.20;;;;;;;27.43;30.42;101598.50;106132;1256;59618;-85
2023/06/05 06:07:52;;;;;;;5.40;2.40;;;;;;;27.44;29.56;101596.77;106170;1251;73396;-90
2023/06/05 06:10:20;;;;;;;4.50;2.50;;;;;;;27.49;29.52;101599.02;105963;1257;63620;-90
2023/06/05 06:12:48;;;;;;;6.70;5.20;;;;;;;27.53;28.98;101596.61;106495;1251;72130;-88
2023/06/05 06:15:16;;;;;;;2.00;1.80;;;;;;;27.56;28.61;101595.07;106022;1250;60129;-90
2023/06/05 06:17:44;;;;;;;3.40;1.30;;;;;;;27.60;28.85;101594.53;106002;1256;60711;-90
2023/06/05 06:20:12;;;;;;;7.80;2.10;;;;;;;27.69;29.12;101594.18;106048;1251;75372;-89
2023/06/05 06:22:42;;;;;;;2.10;1.40;;;;;;;27.93;28.58;101594.60;106121;1257;63625;-90
2023/06/05 06:25:14;;;;;;;3.00;1.10;;;;;;;28.18;28.45;101597.11;106044;1254;71561;-91
2023/06/05 06:27:45;;;;;;;7.70;1.30;;;;;;;28.30;27.65;101596.07;105978;1257;59659;-94
2023/06/05 06:30:13;;;;;;;7.30;1.60;;;;;;;28.28;26.95;101597.48;106184;1256;59805;-90
2023/06/05 06:32:41;;;;;;;2.60;1.30;;;;;;;28.24;26.46;101595.73;106228;1251;73294;-91
2023/06/05 06:35:09;;;;;;;2.00;1.50;;;;;;;28.20;26.47;101592.26;105971;1256;63511;-89
2023/06/05 06:37:37;;;;;;;2.90;1.40;;;;;;;28.32;26.96;101595.70;106176;1251;71872;-87
2023/06/05 06:40:10;;;;;;;4.20;1.30;;;;;;;28.46;26.16;101593.71;106041;1256;60924;-89
2023/06/05 06:42:38;;;;;;;3.20;1.40;;;;;;;28.47;25.88;101590.70;106148;1251;60289;-91
2023/06/05 06:45:14;;;;;;;3.00;1.50;;;;;;;28.45;26.39;101590.41;106231;1251;73062;-91
2023/06/05 06:47:42;;;;;;;3.30;1.20;;;;;;;28.52;26.25;101587.00;106380;1250;62964;-88
2023/06/05 06:50:26;;;;;;;;;;;;;;;28.60;26.68;101584.63;106175;1251;70650;-88
2023/06/05 06:52:53;;;;;;;4.10;1.60;;;;;;;28.67;26.77;101590.45;106313;1251;60655;-86
2023/06/05 06:55:21;;;;;;;2.70;1.50;;;;;;;28.88;26.10;101590.24;106155;1251;59720;-88
2023/06/05 06:57:50;;;;;;;2.40;1.20;;;;;;;29.18;25.86;101590.95;105931;1251;73787;-89
2023/06/05 07:00:20;;;;;;;2.40;1.00;;;;;;;29.58;24.89;101593.27;106948;1250;62921;-87
2023/06/05 07:02:56;;;;;;;5.10;1.40;;;;;;;30.00;25.23;101594.92;106013;1251;72483;-86
2023/06/05 07:05:24;;;;;;;3.70;1.30;;;;;;;30.29;24.40;101589.41;106029;1251;60043;-91
2023/06/05 07:07:52;;;;;;;5.60;1.30;;;;;;;30.36;24.32;101590.21;106101;1250;60818;-88
2023/06/05 07:10:19;;;;;;;3.40;1.50;;;;;;;30.51;24.89;101589.36;106123;1255;73112;-89
2023/06/05 07:12:47;;;;;;;3.10;1.50;;;;;;;30.60;24.13;101591.00;106176;1253;63730;-91
2023/06/05 07:15:15;;;;;;;86.60;79.00;;;;;;;30.62;23.64;101584.29;106697;1251;71289;-89
2023/06/05 07:17:42;;;;;;;6.00;5.20;;;;;;;30.40;23.70;101582.35;106294;1250;59688;-91
2023/06/05 07:20:10;;;;;;;5.00;3.50;;;;;;;30.18;24.17;101582.04;106249;1250;60187;-90
2023/06/05 07:22:42;;;;;;;6.60;1.70;;;;;;;30.16;24.41;101582.17;106117;1251;71766;-90
2023/06/05 07:25:12;;;;;;;3.50;1.10;;;;;;;30.31;24.21;101581.16;106210;1251;63680;-90
2023/06/05 07:27:40;;;;;;;3.60;1.00;;;;;;;30.53;23.91;101575.25;106361;1251;70857;-87
2023/06/05 07:30:08;;;;;;;6.80;1.10;;;;;;;30.65;23.58;101575.35;106245;1251;59730;-90
2023/06/05 07:32:36;;;;;;;1.50;0.90;;;;;;;30.73;23.25;101576.09;106086;1251;59605;-87
2023/06/05 07:35:04;;;;;;;1.10;0.90;;;;;;;30.84;22.51;101575.98;106165;1249;73978;-87
2023/06/05 07:37:31;;;;;;;1.90;0.90;;;;;;;31.00;22.38;101571.63;106144;1256;63706;-88
2023/06/05 07:39:59;;;;;;;2.30;1.10;;;;;;;31.14;22.10;101572.63;106251;1249;71529;-83
2023/06/05 07:42:27;;;;;;;2.40;0.90;;;;;;;31.13;22.55;101568.54;106046;1252;59628;-89
2023/06/05 07:44:54;;;;;;;1.30;0.90;;;;;;;31.28;21.67;101573.77;106322;1254;60020;-90
2023/06/05 07:47:22;;;;;;;2.40;0.90;;;;;;;31.39;21.53;101569.83;106206;1251;72336;-87
2023/06/05 07:50:00;;;;;;;4.10;0.80;;;;;;;31.47;21.49;101568.70;106355;1255;62861;-88
2023/06/05 07:52:28;;;;;;;3.50;1.10;;;;;;;31.61;21.55;101569.98;106238;1249;74686;-86
2023/06/05 07:54:56;;;;;;;1.40;0.80;;;;;;;31.65;21.35;101567.70;106329;1251;62055;-88
2023/06/05 07:57:28;;;;;;;2.80;0.90;;;;;;;31.71;21.16;101560.94;106114;1251;60050;-86
2023/06/05 08:11:41;;;;;;;2.80;1.10;;;;;;;32.21;20.60;101555.97;103534;1294;600723;-87
2023/06/05 08:14:11;;;;;;;1.20;1.00;;;;;;;32.19;20.25;101559.18;105636;1266;59699;-88
2023/06/05 08:16:39;;;;;;;1.50;0.70;;;;;;;32.20;19.88;101561.06;104932;1266;59266;-86
2023/06/05 08:19:10;;;;;;;7.00;3.50;;;;;;;32.19;19.94;101562.04;105427;1264;71944;-89
2023/06/05 08:21:37;;;;;;;1.30;0.50;;;;;;;32.07;19.88;101555.63;105502;1258;62464;-87
2023/06/05 08:24:06;;;;;;;3.70;0.70;;;;;;;31.98;20.02;101556.06;105370;1264;701578;-87
2023/06/05 08:26:34;;;;;;;7.30;1.00;;;;;;;32.05;19.73;101556.34;106108;1258;59262;-88
2023/06/05 08:29:02;;;;;;;3.50;0.80;;;;;;;32.06;19.21;101552.66;106444;1261;59344;-87
2023/06/05 08:31:33;;;;;;;1.80;1.00;;;;;;;31.98;19.52;101550.47;106218;1256;72221;-87
2023/06/05 08:34:01;;;;;;;4.30;0.90;;;;;;;31.95;19.83;101551.98;106460;1255;63938;-88
2023/06/05 08:36:32;;;;;;;2.10;0.70;;;;;;;31.97;19.77;101548.07;106474;1260;71344;-86
2023/06/05 08:39:00;;;;;;;2.70;1.80;;;;;;;32.04;19.99;101548.79;105971;1256;59824;-84
2023/06/05 08:41:30;;;;;;;6.00;2.20;;;;;;;32.04;20.03;101548.27;107782;1252;60071;-87
2023/06/05 08:43:59;;;;;;;2.00;0.90;;;;;;;31.86;19.21;101549.77;107739;1257;71837;-88
2023/06/05 08:46:34;;;;;;;4.80;1.00;;;;;;;31.64;19.82;101548.59;106909;1253;62661;-85
2023/06/05 08:49:05;;;;;;;2.60;0.70;;;;;;;31.59;19.96;101544.41;106844;1254;72629;-85
2023/06/05 08:51:33;;;;;;;1.60;0.60;;;;;;;31.63;19.81;101547.92;107897;1251;59564;-87
2023/06/05 08:54:12;;;;;;;1.30;0.90;;;;;;;31.57;20.57;101548.13;109689;1252;59588;-88
2023/06/05 08:56:41;;;;;;;5.40;3.70;;;;;;;31.71;20.53;101547.66;108448;1252;71482;-87
2023/06/05 08:59:10;;;;;;;13.60;12.30;;;;;;;31.78;20.26;101542.32;107946;1251;62609;-85
2023/06/05 09:01:38;;;;;;;2.10;1.70;;;;;;;31.75;19.80;101543.17;107756;1253;71074;-89
2023/06/05 09:04:06;;;;;;;1.30;1.20;;;;;;;31.68;19.85;101540.83;106923;1253;59809;-86
2023/06/05 09:06:33;;;;;;;1.40;0.90;;;;;;;31.65;20.18;101539.63;107327;1252;60501;-84
2023/06/05 09:09:01;;;;;;;3.80;0.60;;;;;;;31.71;20.01;101545.99;107321;1251;73323;-85
2023/06/05 09:11:29;;;;;;;1.60;1.30;;;;;;;31.69;19.91;101545.45;106922;1253;62618;-89
2023/06/05 09:13:59;;;;;;;1.30;0.70;;;;;;;31.64;20.23;101538.29;106885;1253;71401;-84
2023/06/05 09:16:33;;;;;;;3.10;1.40;;;;;;;31.49;20.85;101545.96;106815;1256;60521;-86
2023/06/05 09:19:03;;;;;;;3.40;1.10;;;;;;;31.48;19.84;101543.00;106982;1258;59628;-90
2023/06/05 09:21:32;;;;;;;2.70;1.00;;;;;;;31.17;19.83;101536.23;106947;1253;73435;-91
2023/06/05 09:24:15;;;;;;;3.10;0.60;;;;;;;30.95;20.24;101536.53;106695;1253;62698;-89
2023/06/05 09:26:57;;;;;;;4.30;0.60;;;;;;;30.97;19.96;101533.08;106546;1253;72871;-88
2023/06/05 09:29:33;;;;;;;1.20;0.70;;;;;;;31.09;19.95;101533.09;106405;1253;59517;-88
2023/06/05 09:32:04;;;;;;;2.10;0.90;;;;;;;31.03;20.16;101531.03;106540;1253;59989;-90
2023/06/05 09:34:34;;;;;;;5.30;2.50;;;;;;;30.93;20.78;101536.14;106227;1254;72924;-90
2023/06/05 09:37:05;;;;;;;8.80;5.50;;;;;;;31.02;20.68;101531.83;106154;1254;63327;-89
2023/06/05 09:39:35;;;;;;;11.40;9.60;;;;;;;31.14;20.76;101528.64;106501;1258;70930;-86
2023/06/05 09:54:03;;;;;;;1.50;0.60;;;;;;;31.19;19.56;101520.52;103520;1293;615419;-87
2023/06/05 09:56:31;;;;;;;1.60;0.40;;;;;;;31.09;19.85;101517.71;106106;1270;60174;-88
2023/06/05 09:58:58;;;;;;;8.30;0.90;;;;;;;31.00;20.05;101519.66;105654;1272;60323;-89
2023/06/05 10:01:27;;;;;;;4.00;0.80;;;;;;;31.00;20.52;101516.95;105846;1271;70951;-87
2023/06/05 10:03:58;;;;;;;3.20;0.70;;;;;;;31.05;19.92;101515.08;105870;1268;62361;-89
2023/06/05 10:06:29;;;;;;;4.10;1.00;;;;;;;30.90;19.74;101512.80;106133;1260;629128;-88
2023/06/05 10:09:00;;;;;;;5.10;0.80;;;;;;;30.77;19.96;101512.31;106857;1254;59485;-87
2023/06/05 10:11:27;;;;;;;2.10;0.50;;;;;;;30.73;20.17;101510.60;106831;1254;60303;-90
2023/06/05 10:13:59;;;;;;;3.80;0.80;;;;;;;30.75;21.36;101505.02;106896;1254;72439;-87
2023/06/05 10:16:30;;;;;;;0.70;0.60;;;;;;;30.84;21.33;101499.63;106689;1259;62701;-90
2023/06/05 10:18:58;;;;;;;2.80;0.70;;;;;;;30.82;20.55;101504.16;106757;1254;72619;-87
2023/06/05 10:21:25;;;;;;;1.30;0.50;;;;;;;30.61;20.24;101503.64;106365;1254;60210;-88
2023/06/05 10:23:59;;;;;;;2.30;1.90;;;;;;;30.32;20.16;101503.64;106386;1257;60369;-90
2023/06/05 10:26:29;;;;;;;2.40;1.40;;;;;;;30.07;20.26;101498.29;106199;1254;71731;-89
2023/06/05 10:29:19;;;;;;;4.90;3.70;;;;;;;30.09;20.71;101498.48;106235;1254;62785;-88
2023/06/05 10:32:05;;;;;;;3.00;1.40;;;;;;;30.16;21.02;101499.94;106314;1251;72487;-89
2023/06/05 10:34:56;;;;;;;2.20;0.60;;;;;;;30.29;21.38;101491.96;106351;1254;60321;-90
2023/06/05 10:37:58;;;;;;;2.20;0.70;;;;;;;30.33;21.44;101489.88;106014;1254;60290;-89
2023/06/05 10:40:25;;;;;;;3.00;0.70;;;;;;;30.49;21.13;101489.39;106078;1254;71593;-88
2023/06/05 10:42:52;;;;;;;2.50;0.40;;;;;;;30.45;21.19;101488.77;106080;1256;64013;-89
2023/06/05 10:45:34;;;;;;;1.90;0.80;;;;;;;30.32;21.12;101488.87;106093;1254;72520;-89
2023/06/05 10:48:04;;;;;;;1.70;0.60;;;;;;;30.29;20.84;101485.94;106168;1257;59753;-90
2023/06/05 10:50:31;;;;;;;2.00;0.60;;;;;;;30.23;21.24;101479.60;106991;1255;59248;-86
2023/06/05 10:52:59;;;;;;;4.10;0.40;;;;;;;30.31;21.71;101477.26;106324;1254;72963;-88
2023/06/05 10:55:27;;;;;;;2.40;0.70;;;;;;;30.29;20.99;101473.53;106893;1255;62550;-88
2023/06/05 10:58:08;;;;;;;3.70;1.00;;;;;;;30.18;20.83;101471.64;106909;1254;71204;-88
2023/06/05 11:00:38;;;;;;;5.00;1.10;;;;;;;29.77;21.65;101474.68;107052;1257;59750;-88
2023/06/05 11:03:08;;;;;;;3.70;0.70;;;;;;;29.40;21.43;101471.27;106763;1254;60875;-88
2023/06/05 11:05:35;;;;;;;1.80;0.70;;;;;;;29.03;22.03;101475.80;106758;1254;72830;-89
2023/06/05 11:08:14;;;;;;;1.80;0.50;;;;;;;28.87;22.40;101473.30;106571;1254;63864;-88
2023/06/05 11:11:09;;;;;;;1.40;1.20;;;;;;;28.82;22.24;101468.21;106167;1256;72775;-86
2023/06/05 11:13:58;;;;;;;3.50;3.10;;;;;;;28.93;22.54;101465.86;106458;1253;60177;-86
2023/06/05 11:16:26;;;;;;;3.70;1.80;;;;;;;29.02;22.43;101467.95;106292;1256;59576;-90
2023/06/05 11:18:54;;;;;;;1.10;0.70;;;;;;;29.11;22.41;101465.02;106639;1256;71658;-91
2023/06/05 11:21:23;;;;;;;4.40;1.30;;;;;;;29.13;22.26;101463.20;106303;1253;61929;-87
2023/06/05 11:24:29;;;;;;;4.60;0.90;;;;;;;29.01;22.54;101459.67;106114;1254;72606;-88
2023/06/05 11:26:56;;;;;;;1.30;0.60;;;;;;;28.91;23.03;101460.21;105714;1258;59737;-88
2023/06/05 11:29:25;;;;;;;2.70;0.70;;;;;;;28.83;23.30;101456.77;106150;1260;60141;-88
2023/06/05 11:31:54;;;;;;;7.50;5.20;;;;;;;28.66;23.15;101459.04;106036;1258;73285;-89
2023/06/05 11:34:22;;;;;;;3.40;0.60;;;;;;;28.34;22.97;101457.52;105904;1264;63931;-86
2023/06/05 11:36:49;;;;;;;1.90;0.70;;;;;;;27.96;23.43;101455.11;105842;1257;71216;-87
2023/06/05 11:39:16;;;;;;;4.50;1.30;;;;;;;27.65;23.65;101457.05;105835;1257;59736;-86
2023/06/05 11:41:44;;;;;;;2.90;0.80;;;;;;;27.32;23.80;101451.45;106192;1256;60384;-88
2023/06/05 11:44:12;;;;;;;2.20;1.30;;;;;;;27.01;23.81;101450.23;106028;1258;73514;-85
2023/06/05 11:46:40;;;;;;;0.70;0.60;;;;;;;26.74;23.98;101446.06;106564;1260;63648;-89
2023/06/05 11:49:22;;;;;;;2.40;0.70;;;;;;;26.56;24.89;101440.51;106029;1257;72705;-87
2023/06/05 11:51:50;;;;;;;3.60;1.20;;;;;;;26.43;25.20;101450.64;106440;1262;60206;-88
2023/06/05 11:54:33;;;;;;;1.50;0.70;;;;;;;26.34;25.31;101448.73;107530;1258;59597;-88
2023/06/05 11:57:10;;;;;;;3.10;0.70;;;;;;;26.32;24.70;101443.39;109337;1252;72313;-89